createdAt,value
2018-02-15T00:00:03.051Z,101754.86
2018-02-15T00:02:29.305Z,101750.09
2018-02-15T00:04:55.766Z,101745.70
2018-02-15T00:07:21.977Z,101742.22
2018-02-15T00:09:48.236Z,101739.55
2018-02-15T00:12:14.516Z,101739.13
2018-02-15T00:14:41.089Z,101727.39
2018-02-15T00:17:07.293Z,101729.10
2018-02-15T00:19:33.522Z,101721.29
2018-02-15T00:21:59.709Z,101719.10
2018-02-15T00:24:25.937Z,101720.38
2018-02-15T00:26:52.206Z,101728.28
2018-02-15T00:29:18.405Z,101720.81
2018-02-15T00:31:44.614Z,101723.03
2018-02-15T00:34:10.868Z,101727.79
2018-02-15T00:36:37.044Z,101719.92
2018-02-15T00:39:03.378Z,101719.88
2018-02-15T00:41:29.610Z,101710.20
2018-02-15T00:43:55.809Z,101703.63
2018-02-15T00:46:22.042Z,101707.55
2018-02-15T00:48:48.238Z,101710.14
2018-02-15T00:51:14.435Z,101705.78
2018-02-15T00:53:40.700Z,101704.47
2018-02-15T00:56:06.914Z,101702.27
2018-02-15T00:58:33.388Z,101699.20
2018-02-15T01:00:59.626Z,101699.65
2018-02-15T01:03:25.828Z,101691.38
2018-02-15T01:05:52.066Z,101694.86
2018-02-15T01:08:18.267Z,101690.06
2018-02-15T01:10:44.545Z,101681.31
2018-02-15T01:13:10.756Z,101677.80
2018-02-15T01:15:37.196Z,101676.50
2018-02-15T01:18:03.543Z,101672.55
2018-02-15T01:20:29.750Z,101684.36
2018-02-15T01:22:55.954Z,101683.03
2018-02-15T01:25:22.284Z,101679.52
2018-02-15T01:27:48.759Z,101674.31
2018-02-15T01:30:14.937Z,101676.98
2018-02-15T01:32:41.178Z,101675.70
2018-02-15T01:35:07.339Z,101674.83
2018-02-15T01:37:33.877Z,101673.52
2018-02-15T01:40:00.123Z,101680.03
2018-02-15T01:42:26.334Z,101681.38
2018-02-15T01:44:52.692Z,101676.61
2018-02-15T01:47:18.954Z,101676.16
2018-02-15T01:49:57.326Z,101674.89
2018-02-15T01:52:23.815Z,101667.06
2018-02-15T01:54:50.219Z,101666.71
2018-02-15T01:57:16.398Z,101662.37
2018-02-15T01:59:42.889Z,101651.86
2018-02-15T02:02:09.366Z,101635.69
2018-02-15T02:04:35.623Z,101634.38
2018-02-15T02:07:01.837Z,101628.61
2018-02-15T02:09:28.049Z,101626.33
2018-02-15T02:11:54.356Z,101623.69
2018-02-15T02:14:20.580Z,101617.59
2018-02-15T02:16:46.762Z,101614.96
2018-02-15T02:19:13.172Z,101609.28
2018-02-15T02:21:39.359Z,101608.39
2018-02-15T02:24:05.571Z,101605.77
2018-02-15T02:26:31.886Z,101607.96
2018-02-15T02:28:58.096Z,101602.73
2018-02-15T02:31:24.549Z,101593.16
2018-02-15T02:33:50.762Z,101588.28
2018-02-15T02:36:16.988Z,101585.67
2018-02-15T02:38:43.513Z,101577.77
2018-02-15T02:41:09.726Z,101575.21
2018-02-15T02:43:35.956Z,101574.77
2018-02-15T02:46:02.150Z,101567.77
2018-02-15T02:48:28.322Z,101566.48
2018-02-15T02:50:54.551Z,101570.38
2018-02-15T02:53:20.759Z,101567.75
2018-02-15T02:55:46.970Z,101566.89
2018-02-15T02:58:13.206Z,101553.38
2018-02-15T03:00:39.424Z,101554.64
2018-02-15T03:03:05.618Z,101552.92
2018-02-15T03:05:31.887Z,101538.91
2018-02-15T03:07:58.097Z,101538.92
2018-02-15T03:10:24.292Z,101530.56
2018-02-15T03:12:50.907Z,101526.68
2018-02-15T03:15:17.317Z,101537.16
2018-02-15T03:17:43.502Z,101534.98
2018-02-15T03:20:09.761Z,101532.80
2018-02-15T03:22:35.948Z,101530.17
2018-02-15T03:25:02.392Z,101521.42
2018-02-15T03:27:28.884Z,101516.63
2018-02-15T03:29:55.093Z,101514.05
2018-02-15T03:32:21.359Z,101509.22
2018-02-15T03:34:47.574Z,101506.16
2018-02-15T03:37:13.778Z,101506.61
2018-02-15T03:39:40.034Z,101496.55
2018-02-15T03:42:06.229Z,101498.27
2018-02-15T03:44:32.433Z,101501.34
2018-02-15T03:46:58.698Z,101497.86
2018-02-15T03:49:24.962Z,101497.02
2018-02-15T03:51:51.144Z,101497.91
2018-02-15T03:54:17.414Z,101499.67
2018-02-15T03:56:43.629Z,101500.48
2018-02-15T03:59:10.157Z,101501.77
2018-02-15T04:01:36.479Z,101502.26
2018-02-15T04:04:02.674Z,101490.91
2018-02-15T04:06:28.946Z,101485.68
2018-02-15T04:08:55.484Z,101483.55
2018-02-15T04:11:21.675Z,101485.34
2018-02-15T04:13:48.149Z,101475.39
2018-02-15T04:16:14.397Z,101479.70
2018-02-15T04:18:40.685Z,101481.40
2018-02-15T04:21:06.861Z,101486.20
2018-02-15T04:23:33.132Z,101483.61
2018-02-15T04:25:59.693Z,101488.86
2018-02-15T04:28:25.912Z,101490.65
2018-02-15T04:30:52.137Z,101484.08
2018-02-15T04:33:18.357Z,101482.70
2018-02-15T04:35:44.811Z,101479.55
2018-02-15T04:38:11.077Z,101469.12
2018-02-15T04:40:37.314Z,101464.73
2018-02-15T04:43:03.472Z,101458.24
2018-02-15T04:45:29.706Z,101456.53
2018-02-15T04:47:55.896Z,101449.94
2018-02-15T04:50:22.094Z,101444.34
2018-02-15T04:52:48.349Z,101446.12
2018-02-15T04:55:14.549Z,101450.91
2018-02-15T04:57:40.753Z,101449.59
2018-02-15T05:00:07.007Z,101441.72
2018-02-15T05:02:33.189Z,101439.50
2018-02-15T05:04:59.415Z,101432.48
2018-02-15T05:07:25.617Z,101435.92
2018-02-15T05:09:52.105Z,101430.71
2018-02-15T05:12:18.375Z,101433.85
2018-02-15T05:14:44.583Z,101429.86
2018-02-15T05:17:11.044Z,101434.70
2018-02-15T05:19:37.289Z,101430.39
2018-02-15T05:22:03.521Z,101432.63
2018-02-15T05:24:29.780Z,101428.69
2018-02-15T05:26:55.981Z,101428.65
2018-02-15T05:29:22.445Z,101420.77
2018-02-15T05:31:48.677Z,101417.28
2018-02-15T05:34:14.836Z,101418.12
2018-02-15T05:36:41.011Z,101404.62
2018-02-15T05:39:07.278Z,101395.85
2018-02-15T05:41:33.458Z,101396.69
2018-02-15T05:43:59.656Z,101387.45
2018-02-15T05:46:25.893Z,101391.84
2018-02-15T05:48:52.373Z,101388.42
2018-02-15T05:51:18.583Z,101378.40
2018-02-15T05:53:45.074Z,101377.56
2018-02-15T05:56:11.565Z,101372.30
2018-02-15T05:58:37.792Z,101364.91
2018-02-15T06:01:03.957Z,101357.94
2018-02-15T06:03:30.133Z,101358.83
2018-02-15T06:05:56.381Z,101363.67
2018-02-15T06:08:22.549Z,101360.17
2018-02-15T06:10:48.777Z,101363.67
2018-02-15T06:13:14.964Z,101369.71
2018-02-15T06:15:41.146Z,101371.94
2018-02-15T06:18:07.401Z,101371.08
2018-02-15T06:20:33.783Z,101371.12
2018-02-15T06:22:59.994Z,101371.58
2018-02-15T06:25:26.245Z,101369.02
2018-02-15T06:27:52.435Z,101372.97
2018-02-15T06:30:18.810Z,101368.05
2018-02-15T06:32:45.033Z,101372.31
2018-02-15T06:35:11.218Z,101371.80
2018-02-15T06:37:37.635Z,101367.81
2018-02-15T06:40:03.826Z,101368.20
2018-02-15T06:42:30.069Z,101368.58
2018-02-15T06:44:56.288Z,101370.70
2018-02-15T06:47:22.498Z,101375.48
2018-02-15T06:49:48.758Z,101368.11
2018-02-15T06:52:15.324Z,101369.01
2018-02-15T06:54:41.736Z,101365.92
2018-02-15T06:57:08.242Z,101367.28
2018-02-15T06:59:34.509Z,101362.48
2018-02-15T07:02:00.710Z,101355.92
2018-02-15T07:04:26.960Z,101360.22
2018-02-15T07:06:53.143Z,101349.26
2018-02-15T07:09:19.351Z,101349.34
2018-02-15T07:11:45.640Z,101348.84
2018-02-15T07:14:11.830Z,101352.77
2018-02-15T07:16:38.034Z,101337.08
2018-02-15T07:19:04.292Z,101344.00
2018-02-15T07:21:30.553Z,101340.55
2018-02-15T07:23:57.109Z,101345.78
2018-02-15T07:26:23.351Z,101340.59
2018-02-15T07:28:49.875Z,101340.22
2018-02-15T07:31:16.411Z,101321.52
2018-02-15T07:33:42.691Z,101322.89
2018-02-15T07:36:08.896Z,101306.80
2018-02-15T07:38:35.097Z,101300.69
2018-02-15T07:41:01.356Z,101300.30
2018-02-15T07:43:27.770Z,101296.76
2018-02-15T07:45:53.950Z,101304.62
2018-02-15T07:48:20.345Z,101305.50
2018-02-15T07:50:46.585Z,101310.25
2018-02-15T07:53:12.829Z,101301.06
2018-02-15T07:55:39.098Z,101310.72
2018-02-15T07:58:05.323Z,101292.38
2018-02-15T08:00:31.868Z,101293.20
2018-02-15T08:02:58.088Z,101286.59
2018-02-15T08:05:24.284Z,101289.22
2018-02-15T08:07:50.513Z,101283.12
2018-02-15T08:10:16.986Z,101290.52
2018-02-15T08:12:43.268Z,101289.67
2018-02-15T08:15:09.529Z,101290.12
2018-02-15T08:17:35.715Z,101287.08
2018-02-15T08:20:01.951Z,101287.98
2018-02-15T08:22:28.253Z,101282.28
2018-02-15T08:24:54.453Z,101285.77
2018-02-15T08:27:20.629Z,101287.13
2018-02-15T08:29:46.869Z,101275.78
2018-02-15T08:32:13.334Z,101279.30
2018-02-15T08:34:39.525Z,101279.23
2018-02-15T08:37:06.105Z,101273.98
2018-02-15T08:39:32.319Z,101270.08
2018-02-15T08:41:58.493Z,101268.80
2018-02-15T08:44:24.712Z,101258.28
2018-02-15T08:46:50.891Z,101274.02
2018-02-15T08:49:17.156Z,101270.92
2018-02-15T08:51:43.327Z,101273.49
2018-02-15T08:54:09.515Z,101278.33
2018-02-15T08:56:35.944Z,101274.41
2018-02-15T08:59:02.143Z,101275.33
2018-02-15T09:01:28.340Z,101273.58
2018-02-15T09:03:54.926Z,101277.12
2018-02-15T09:06:21.143Z,101281.55
2018-02-15T09:08:47.321Z,101280.17
2018-02-15T09:11:13.918Z,101272.23
2018-02-15T09:13:40.386Z,101270.61
2018-02-15T09:16:06.602Z,101274.13
2018-02-15T09:18:33.114Z,101266.27
2018-02-15T09:20:59.398Z,101261.47
2018-02-15T09:23:25.718Z,101257.95
2018-02-15T09:25:51.962Z,101260.55
2018-02-15T09:28:18.171Z,101264.06
2018-02-15T09:30:44.355Z,101264.94
2018-02-15T09:33:10.597Z,101257.04
2018-02-15T09:35:36.785Z,101249.18
2018-02-15T09:38:03.004Z,101245.66
2018-02-15T09:40:29.244Z,101251.78
2018-02-15T09:42:55.423Z,101244.80
2018-02-15T09:45:21.655Z,101242.09
2018-02-15T09:47:47.921Z,101246.91
2018-02-15T09:50:14.131Z,101239.07
2018-02-15T09:52:40.321Z,101233.41
2018-02-15T09:55:06.593Z,101232.93
2018-02-15T09:57:33.045Z,101233.30
2018-02-15T09:59:59.237Z,101217.59
2018-02-15T10:02:25.451Z,101225.05
2018-02-15T10:04:51.960Z,101217.59
2018-02-15T10:07:18.494Z,101225.44
2018-02-15T10:09:44.682Z,101222.84
2018-02-15T10:12:10.907Z,101218.95
2018-02-15T10:14:37.380Z,101216.26
2018-02-15T10:17:03.648Z,101220.64
2018-02-15T10:19:29.868Z,101214.45
2018-02-15T10:21:56.107Z,101205.62
2018-02-15T10:24:22.354Z,101216.13
2018-02-15T10:26:48.561Z,101217.88
2018-02-15T10:29:15.056Z,101219.17
2018-02-15T10:31:41.276Z,101211.70
2018-02-15T10:34:07.499Z,101216.92
2018-02-15T10:36:33.769Z,101210.84
2018-02-15T10:39:00.277Z,101197.73
2018-02-15T10:41:26.520Z,101195.98
2018-02-15T10:43:52.782Z,101199.12
2018-02-15T10:46:18.979Z,101199.53
2018-02-15T10:48:45.392Z,101201.28
2018-02-15T10:51:11.611Z,101202.08
2018-02-15T10:53:39.196Z,101188.19
2018-02-15T10:56:05.419Z,101186.04
2018-02-15T10:58:31.660Z,101195.20
2018-02-15T11:01:03.917Z,101190.03
2018-02-15T11:03:30.163Z,101190.02
2018-02-15T11:06:00.430Z,101190.94
2018-02-15T11:08:26.631Z,101177.03
2018-02-15T11:10:52.819Z,101190.13
2018-02-15T11:13:19.099Z,101182.66
2018-02-15T11:15:45.321Z,101184.78
2018-02-15T11:18:11.536Z,101199.18
2018-02-15T11:20:37.816Z,101194.81
2018-02-15T11:23:04.474Z,101188.20
2018-02-15T11:25:30.732Z,101194.73
2018-02-15T11:27:56.999Z,101196.91
2018-02-15T11:30:23.236Z,101201.71
2018-02-15T11:32:49.422Z,101189.05
2018-02-15T11:35:15.708Z,101194.72
2018-02-15T11:37:41.931Z,101188.93
2018-02-15T11:40:08.473Z,101187.20
2018-02-15T11:42:34.727Z,101182.41
2018-02-15T11:45:00.921Z,101170.66
2018-02-15T11:47:27.418Z,101168.91
2018-02-15T11:49:53.631Z,101175.49
2018-02-15T11:52:19.835Z,101172.02
2018-02-15T11:54:46.200Z,101171.58
2018-02-15T11:57:12.398Z,101175.05
2018-02-15T11:59:38.566Z,101185.03
2018-02-15T12:02:04.807Z,101195.06
2018-02-15T12:04:30.977Z,101202.08
2018-02-15T12:06:57.154Z,101206.89
2018-02-15T12:09:23.518Z,101202.56
2018-02-15T12:11:49.715Z,101202.14
2018-02-15T12:14:15.992Z,101189.87
2018-02-15T12:16:42.308Z,101184.12
2018-02-15T12:19:08.510Z,101180.16
2018-02-15T12:21:34.966Z,101173.20
2018-02-15T12:24:01.242Z,101170.59
2018-02-15T12:26:27.708Z,101164.41
2018-02-15T12:28:53.979Z,101157.85
2018-02-15T12:31:20.190Z,101178.84
2018-02-15T12:33:46.378Z,101164.48
2018-02-15T12:36:12.627Z,101167.44
2018-02-15T12:38:38.851Z,101151.27
2018-02-15T12:41:05.406Z,101152.92
2018-02-15T12:43:31.648Z,101155.52
2018-02-15T12:45:57.937Z,101153.81
2018-02-15T12:48:24.503Z,101151.64
2018-02-15T12:50:50.772Z,101152.48
2018-02-15T12:53:17.010Z,101148.99
2018-02-15T12:55:43.210Z,101155.14
2018-02-15T12:58:09.483Z,101151.69
2018-02-15T13:00:35.705Z,101149.52
2018-02-15T13:03:01.955Z,101147.83
2018-02-15T13:05:28.231Z,101150.44
2018-02-15T13:07:54.427Z,101160.04
2018-02-15T13:10:20.659Z,101162.66
2018-02-15T13:12:59.179Z,101159.25
2018-02-15T13:15:37.698Z,101163.16
2018-02-15T13:18:03.970Z,101158.35
2018-02-15T13:20:30.189Z,101157.05
2018-02-15T13:22:56.782Z,101150.91
2018-02-15T13:25:23.031Z,101163.20
2018-02-15T13:28:01.548Z,101152.75
2018-02-15T13:30:27.810Z,101162.36
2018-02-15T13:32:54.290Z,101165.02
2018-02-15T13:35:20.827Z,101158.52
2018-02-15T13:40:23.044Z,101161.53
2018-02-15T13:42:49.313Z,101164.52
2018-02-15T13:45:15.523Z,101168.00
2018-02-15T13:47:41.725Z,101156.56
2018-02-15T13:50:08.073Z,101154.81
2018-02-15T13:52:34.303Z,101159.63
2018-02-15T13:55:00.586Z,101153.06
2018-02-15T13:57:26.841Z,101150.08
2018-02-15T13:59:53.030Z,101138.69
2018-02-15T14:02:19.207Z,101140.78
2018-02-15T14:04:45.523Z,101134.25
2018-02-15T14:07:11.800Z,101129.08
2018-02-15T14:09:37.994Z,101119.00
2018-02-15T14:12:04.180Z,101114.30
2018-02-15T14:14:30.921Z,101108.20
2018-02-15T14:16:57.131Z,101110.81
2018-02-15T14:19:23.310Z,101108.24
2018-02-15T14:21:49.579Z,101111.30
2018-02-15T14:24:16.032Z,101105.23
2018-02-15T14:26:42.368Z,101101.37
2018-02-15T14:29:08.700Z,101099.26
2018-02-15T14:31:35.100Z,101103.19
2018-02-15T14:34:01.293Z,101099.23
2018-02-15T14:36:27.558Z,101097.06
2018-02-15T14:38:53.749Z,101093.56
2018-02-15T14:41:19.956Z,101097.95
2018-02-15T14:43:46.166Z,101097.13
2018-02-15T14:46:12.422Z,101100.16
2018-02-15T14:48:38.864Z,101103.65
2018-02-15T14:51:05.063Z,101105.48
2018-02-15T14:53:31.372Z,101106.34
2018-02-15T14:55:57.567Z,101113.34
2018-02-15T14:58:23.794Z,101108.55
2018-02-15T15:00:50.081Z,101115.97
2018-02-15T15:03:16.282Z,101107.23
2018-02-15T15:05:42.843Z,101101.67
2018-02-15T15:08:09.374Z,101102.08
2018-02-15T15:10:35.582Z,101104.70
2018-02-15T15:13:01.785Z,101104.70
2018-02-15T15:15:28.073Z,101104.70
2018-02-15T15:17:54.314Z,101114.77
2018-02-15T15:20:20.533Z,101122.22
2018-02-15T15:22:46.968Z,101123.98
2018-02-15T15:25:13.439Z,101130.53
2018-02-15T15:27:39.692Z,101124.84
2018-02-15T15:30:05.941Z,101122.26
2018-02-15T15:32:32.473Z,101112.23
2018-02-15T15:34:58.694Z,101110.88
2018-02-15T15:37:24.927Z,101107.00
2018-02-15T15:39:51.354Z,101102.61
2018-02-15T15:42:17.582Z,101105.25
2018-02-15T15:44:43.786Z,101107.89
2018-02-15T15:47:09.998Z,101109.25
2018-02-15T15:49:36.242Z,101111.48
2018-02-15T15:52:02.473Z,101100.58
2018-02-15T15:54:28.649Z,101105.88
2018-02-15T15:56:54.881Z,101103.71
2018-02-15T15:59:21.302Z,101106.74
2018-02-15T16:01:47.822Z,101097.57
2018-02-15T16:04:14.011Z,101102.72
2018-02-15T16:06:40.474Z,101108.00
2018-02-15T16:09:06.701Z,101116.34
2018-02-15T16:11:32.888Z,101107.64
2018-02-15T16:13:59.077Z,101104.58
2018-02-15T16:16:25.340Z,101100.63
2018-02-15T16:18:51.559Z,101105.88
2018-02-15T16:21:17.956Z,101104.56
2018-02-15T16:23:44.205Z,101094.49
2018-02-15T16:26:10.430Z,101101.02
2018-02-15T16:28:36.632Z,101100.58
2018-02-15T16:31:02.918Z,101106.66
2018-02-15T16:33:29.100Z,101114.48
2018-02-15T16:35:55.261Z,101122.34
2018-02-15T16:38:21.607Z,101124.14
2018-02-15T16:40:47.830Z,101135.97
2018-02-15T16:43:14.323Z,101142.98
2018-02-15T16:45:40.571Z,101138.19
2018-02-15T16:48:06.819Z,101133.41
2018-02-15T16:50:33.021Z,101136.95
2018-02-15T16:52:59.226Z,101144.36
2018-02-15T16:55:25.445Z,101148.73
2018-02-15T16:57:51.642Z,101153.06
2018-02-15T17:00:17.912Z,101152.65
2018-02-15T17:02:44.166Z,101150.02
2018-02-15T17:05:10.385Z,101159.20
2018-02-15T17:07:36.646Z,101155.29
2018-02-15T17:10:02.888Z,101150.95
2018-02-15T17:12:29.093Z,101155.75
2018-02-15T17:14:55.368Z,101153.52
2018-02-15T17:17:21.923Z,101159.66
2018-02-15T17:19:48.131Z,101155.34
2018-02-15T17:22:14.384Z,101145.31
2018-02-15T17:24:40.605Z,101153.61
2018-02-15T17:27:06.853Z,101161.03
2018-02-15T17:29:33.135Z,101154.91
2018-02-15T17:31:59.568Z,101158.39
2018-02-15T17:34:26.000Z,101168.03
2018-02-15T17:36:52.255Z,101174.17
2018-02-15T17:39:24.372Z,101176.83
2018-02-15T17:41:50.568Z,101182.48
2018-02-15T17:44:16.872Z,101184.24
2018-02-15T17:46:43.123Z,101190.36
2018-02-15T17:49:09.335Z,101189.41
2018-02-15T17:51:35.534Z,101184.58
2018-02-15T17:54:01.781Z,101184.62
2018-02-15T17:56:28.331Z,101199.90
2018-02-15T17:58:54.594Z,101185.03
2018-02-15T18:01:20.839Z,101191.12
2018-02-15T18:03:47.068Z,101187.61
2018-02-15T18:06:13.293Z,101187.16
2018-02-15T18:08:39.493Z,101194.98
2018-02-15T18:11:05.764Z,101194.37
2018-02-15T18:13:31.975Z,101189.52
2018-02-15T18:15:58.164Z,101201.34
2018-02-15T18:18:24.424Z,101202.22
2018-02-15T18:20:50.630Z,101204.81
2018-02-15T18:23:17.155Z,101200.91
2018-02-15T18:25:43.408Z,101196.05
2018-02-15T18:28:09.699Z,101198.27
2018-02-15T18:30:35.950Z,101204.85
2018-02-15T18:33:02.210Z,101198.67
2018-02-15T18:35:28.391Z,101204.35
2018-02-15T18:37:54.640Z,101205.70
2018-02-15T18:40:20.862Z,101200.07
2018-02-15T18:42:47.065Z,101209.70
2018-02-15T18:45:13.306Z,101210.98
2018-02-15T18:47:39.520Z,101197.81
2018-02-15T18:50:05.720Z,101212.15
2018-02-15T18:52:31.911Z,101218.22
2018-02-15T18:54:58.105Z,101223.95
2018-02-15T18:57:24.654Z,101225.22
2018-02-15T18:59:50.854Z,101208.25
2018-02-15T19:02:17.028Z,101215.69
2018-02-15T19:04:43.269Z,101222.25
2018-02-15T19:07:09.474Z,101226.56
2018-02-15T19:09:35.734Z,101231.79
2018-02-15T19:12:02.223Z,101240.13
2018-02-15T19:14:28.437Z,101242.71
2018-02-15T19:16:54.693Z,101248.77
2018-02-15T19:19:20.911Z,101254.45
2018-02-15T19:21:47.314Z,101250.09
2018-02-15T19:24:13.540Z,101248.33
2018-02-15T19:26:40.015Z,101255.32
2018-02-15T19:29:06.203Z,101254.02
2018-02-15T19:31:32.426Z,101252.70
2018-02-15T19:33:58.649Z,101261.04
2018-02-15T19:36:24.854Z,101255.83
2018-02-15T19:38:51.044Z,101255.75
2018-02-15T19:41:17.274Z,101257.04
2018-02-15T19:43:43.808Z,101263.25
2018-02-15T19:46:10.026Z,101265.00
2018-02-15T19:48:36.488Z,101268.52
2018-02-15T19:51:02.668Z,101267.23
2018-02-15T19:53:28.865Z,101274.67
2018-02-15T19:55:55.083Z,101274.71
2018-02-15T19:58:21.332Z,101279.48
2018-02-15T20:00:47.552Z,101284.63
2018-02-15T20:03:13.767Z,101284.60
2018-02-15T20:05:40.102Z,101284.56
2018-02-15T20:08:06.316Z,101281.87
2018-02-15T20:10:32.743Z,101285.77
2018-02-15T20:12:59.004Z,101288.38
2018-02-15T20:15:31.339Z,101292.27
2018-02-15T20:17:57.513Z,101296.62
2018-02-15T20:20:23.762Z,101296.67
2018-02-15T20:22:50.030Z,101296.74
2018-02-15T20:25:16.239Z,101299.40
2018-02-15T20:27:48.338Z,101299.40
2018-02-15T20:30:14.634Z,101300.71
2018-02-15T20:32:40.872Z,101296.32
2018-02-15T20:35:07.161Z,101300.70
2018-02-15T20:40:39.772Z,101301.98
2018-02-15T20:43:05.977Z,101305.00
2018-02-15T20:45:32.164Z,101301.92
2018-02-15T20:47:58.677Z,101301.91
2018-02-15T20:50:30.813Z,101304.08
2018-02-15T20:53:02.986Z,101311.11
2018-02-15T20:55:35.283Z,101313.73
2018-02-15T20:58:01.501Z,101315.03
2018-02-15T21:00:27.761Z,101319.38
2018-02-15T21:02:53.969Z,101316.80
2018-02-15T21:05:20.151Z,101313.75
2018-02-15T21:07:46.402Z,101318.17
2018-02-15T21:10:12.605Z,101326.06
2018-02-15T21:12:38.818Z,101325.60
2018-02-15T21:15:05.087Z,101334.32
2018-02-15T21:17:31.294Z,101339.63
2018-02-15T21:19:57.485Z,101341.84
2018-02-15T21:22:23.714Z,101348.83
2018-02-15T21:24:49.970Z,101352.31
2018-02-15T21:27:16.159Z,101354.52
2018-02-15T21:29:42.342Z,101355.33
2018-02-15T21:32:08.594Z,101355.81
2018-02-15T21:34:34.858Z,101360.16
2018-02-15T21:37:01.044Z,101350.56
2018-02-15T21:39:27.594Z,101350.09
2018-02-15T21:41:53.848Z,101352.30
2018-02-15T21:44:20.027Z,101352.30
2018-02-15T21:46:46.223Z,101348.38
2018-02-15T21:49:12.494Z,101351.85
2018-02-15T21:51:38.700Z,101362.36
2018-02-15T21:54:04.907Z,101359.72
2018-02-15T21:56:31.164Z,101359.73
2018-02-15T21:58:57.356Z,101377.21
2018-02-15T22:01:23.550Z,101372.42
2018-02-15T22:03:49.782Z,101375.09
2018-02-15T22:06:15.997Z,101381.64
2018-02-15T22:08:42.537Z,101385.14
2018-02-15T22:11:09.069Z,101389.91
2018-02-15T22:13:35.264Z,101389.50
2018-02-15T22:16:01.452Z,101392.59
2018-02-15T22:18:27.712Z,101398.23
2018-02-15T22:20:53.940Z,101400.00
2018-02-15T22:23:20.141Z,101405.25
2018-02-15T22:25:46.375Z,101412.17
2018-02-15T22:28:12.563Z,101415.66
2018-02-15T22:30:38.740Z,101417.41
2018-02-15T22:33:05.033Z,101418.69
2018-02-15T22:35:31.247Z,101420.41
2018-02-15T22:37:57.659Z,101430.02
2018-02-15T22:40:23.911Z,101424.76
2018-02-15T22:42:50.143Z,101427.41
2018-02-15T22:45:16.386Z,101435.70
2018-02-15T22:47:42.608Z,101438.75
2018-02-15T22:50:08.806Z,101436.55
2018-02-15T22:52:34.977Z,101443.63
2018-02-15T22:55:01.473Z,101451.92
2018-02-15T22:57:27.920Z,101458.01
2018-02-15T22:59:54.131Z,101452.34
2018-02-15T23:02:20.369Z,101459.75
2018-02-15T23:04:46.565Z,101464.55
2018-02-15T23:07:12.846Z,101465.86
2018-02-15T23:09:39.059Z,101466.70
2018-02-15T23:12:05.234Z,101472.86
2018-02-15T23:14:31.515Z,101468.06
2018-02-15T23:16:57.710Z,101476.83
2018-02-15T23:19:24.151Z,101479.84
2018-02-15T23:21:50.399Z,101477.24
2018-02-15T23:24:16.584Z,101475.95
2018-02-15T23:26:42.761Z,101482.53
2018-02-15T23:29:09.008Z,101488.61
2018-02-15T23:31:35.202Z,101488.61
2018-02-15T23:34:01.442Z,101492.58
2018-02-15T23:36:27.978Z,101494.67
2018-02-15T23:38:54.236Z,101489.48
2018-02-15T23:41:20.462Z,101493.38
2018-02-15T23:43:46.677Z,101495.50
2018-02-15T23:46:12.871Z,101498.97
2018-02-15T23:48:39.175Z,101499.45
2018-02-15T23:51:05.374Z,101495.09
2018-02-15T23:53:31.590Z,101499.02
2018-02-15T23:55:57.828Z,101498.20
2018-02-15T23:58:24.030Z,101506.05
